Terminal Aerodrome Forecast
Issued by NWS Charleston, WV

Current Version | Previous Version | Graphics & Text | Print | Product List | Glossary On
Versions: 1 2 3 4 5 6 7 8 9 10 11 12 13 14 15 16 17 18 19 20 21
000
FTUS41 KRLX 291400 AAA
TAFEKN
TAF AMD
KEKN 291420Z 2914/3012 VRB03KT P6SM SCT005
     FM291500 VRB03KT P6SM SCT045
     FM301000 17004KT P6SM BKN100=

USA.gov is the U.S. government's official web portal to all federal, state and local government web resources and services.